Flight Track Log - Related Links

Times and Time Zones

All times are in EDT time to prevent confusion due to time zone crossing. See the GJS3657 flight status page for this flight to view local times or setup timezone preferences in your user account.

Time Position Orientation Groundspeed Altitude Reporting Facility
EDT Latitude Longitude Course Direction KTS MPH feet Rate Location/Type
Thu 02:33:07 AM 41.9833 -87.9833 77° East 193 222 3,300  Level Chicago TRACON
Thu 02:34:07 AM 42.0333 -88.0000 346° North 255 293 4,900 800 Climbing Chicago TRACON
Thu 02:35:07 AM 42.1167 -88.0000 360° North 260 299 4,900 1,323 Level Chicago TRACON
Thu 02:36:14 AM 42.1861 -87.9956 North 257 296 7,700 2,598 Climbing Chicago Center
Thu 02:37:14 AM 42.2619 -87.9883 North 270 311 10,400 2,100 Climbing Chicago Center
Thu 02:38:00 AM 42.1466 -86.9419 77° East  Level Estimated
Thu 02:38:14 AM 42.3469 -87.9769 North 302 348 11,900  Level Chicago Center
Thu 02:39:15 AM 42.4319 -87.9094 30° Northeast 348 400 14,000 1,636 Climbing Chicago Center
Thu 02:40:15 AM 42.4664 -87.7650 72° East 411 473 15,200 1,500 Climbing Chicago Center
Thu 02:41:15 AM 42.4794 -87.6097 83° East 419 482 17,000 1,500 Climbing Chicago Center
Thu 02:42:15 AM 42.4903 -87.4461 85° East 433 498 18,200 1,150 Climbing Chicago Center
Thu 02:43:15 AM 42.5028 -87.3008 83° East 453 521 19,300 1,250 Climbing Chicago Center
Thu 02:44:15 AM 42.5167 -87.1272 84° East 465 535 20,700 1,550 Climbing Chicago Center
Thu 02:45:15 AM 42.5328 -86.9156 84° East 470 541 22,400 1,488 Climbing Chicago Center
Thu 02:46:16 AM 42.5456 -86.7375 84° East 476 548 23,700 1,190 Climbing Chicago Center
Thu 02:47:16 AM 42.5575 -86.5581 85° East 481 554 24,800 942 Climbing Chicago Center
Thu 02:48:17 AM 42.5714 -86.3747 84° East 490 564 25,600 800 Climbing Chicago Center
Thu 02:49:16 AM 42.5836 -86.1864 85° East 503 579 26,400 908 Climbing Chicago Center
Thu 02:50:16 AM 42.5958 -85.9975 85° East 508 585 27,400 1,100 Climbing Chicago Center
Thu 02:51:16 AM 42.6078 -85.8089 85° East 509 586 28,600 1,091 Climbing Chicago Center
Thu 02:52:17 AM 42.6203 -85.6214 85° East 505 581 29,600 893 Climbing Chicago Center
Thu 02:53:17 AM 42.6322 -85.4311 85° East 510 587 30,400 850 Climbing Chicago Center
Thu 02:54:17 AM 42.6436 -85.2397 85° East 512 589 31,300 900 Climbing Chicago Center
Thu 02:55:17 AM 42.6567 -85.0497 85° East 509 586 32,200 750 Climbing Chicago Center
Thu 02:56:17 AM 42.6672 -84.8586 86° East 511 588 32,800 550 Climbing Chicago Center
Thu 02:57:17 AM 42.6781 -84.6647 86° East 516 594 33,300 595 Climbing Chicago Center
Thu 02:58:18 AM 42.6889 -84.4692 86° East 520 598 34,000 645 Climbing Chicago Center
Thu 02:59:18 AM 42.6981 -84.2742 86° East 520 598 34,600 600 Climbing Chicago Center
Thu 03:00:18 AM 42.7086 -84.0803 86° East 517 595 35,200 550 Climbing Chicago Center
Thu 03:01:18 AM 42.7172 -83.8853 86° East 519 597 35,700 496 Climbing Chicago Center
Thu 03:02:19 AM 42.7267 -83.6883 86° East 523 602 36,200 496 Climbing Chicago Center
Thu 03:03:19 AM 42.7361 -83.4925 86° East 522 601 36,700 400 Climbing Chicago Center
Thu 03:04:19 AM 42.7442 -83.2986 87° East 516 594 37,000 182 Climbing Chicago Center
Thu 03:04:58 AM 42.7500 -83.1500 87° East 520 598 37,000  Level Toronto Center
Thu 03:05:28 AM 42.7503 -83.0686 90° East 513 590 37,000  Level Cleveland Center
Thu 03:06:28 AM 42.7583 -82.8767 87° East 513 590 37,000  Level Cleveland Center
Thu 03:07:28 AM 42.7664 -82.6789 87° East 513 590 37,000  Level Cleveland Center
Thu 03:08:28 AM 42.7717 -82.4839 88° East 513 590 37,000  Level Cleveland Center
Thu 03:09:28 AM 42.7789 -82.2917 87° East 513 590 37,000  Level Cleveland Center
Thu 03:10:28 AM 42.7858 -82.1025 87° East 508 585 37,000  Level Cleveland Center
Thu 03:11:28 AM 42.7903 -81.9128 88° East 508 585 37,000  Level Cleveland Center
Thu 03:12:28 AM 42.7986 -81.7036 87° East 496 571 37,000  Level Cleveland Center
Thu 03:13:28 AM 42.8042 -81.5369 87° East 496 571 37,000  Level Cleveland Center
Thu 03:14:28 AM 42.8078 -81.3417 88° East 496 571 37,000 500 Level Cleveland Center
Thu 03:15:28 AM 42.8131 -81.1550 88° East 496 571 38,000 900 Climbing Cleveland Center
Thu 03:16:28 AM 42.8200 -80.9767 87° East 483 556 38,800 500 Climbing Cleveland Center
Thu 03:17:28 AM 42.8353 -80.8011 83° East 474 545 39,000 100 Climbing Cleveland Center
Thu 03:18:28 AM 42.8436 -80.5972 87° East 479 551 39,000  Level Cleveland Center
Thu 03:19:28 AM 42.8456 -80.4161 89° East 479 551 39,000  Level Cleveland Center
Thu 03:20:28 AM 42.8472 -80.2292 89° East 479 551 39,000  Level Cleveland Center
Thu 03:21:28 AM 42.8486 -80.0394 89° East 485 558 39,000  Level Cleveland Center
Thu 03:22:28 AM 42.8561 -79.8525 87° East 490 564 39,000  Level Cleveland Center
Thu 03:23:28 AM 42.8589 -79.6628 89° East 495 570 39,000  Level Cleveland Center
Thu 03:24:28 AM 42.8614 -79.4728 89° East 495 570 39,000  Level Cleveland Center
Thu 03:25:28 AM 42.8578 -79.3228 92° East 495 570 39,000  Level Cleveland Center
Thu 03:26:28 AM 42.8572 -79.1133 90° East 495 570 39,000  Level Cleveland Center
Thu 03:27:28 AM 42.8569 -78.9236 90° East 495 570 39,000  Level Cleveland Center
Thu 03:28:28 AM 42.8581 -78.7253 89° East 500 575 39,000  Level Cleveland Center
Thu 03:29:28 AM 42.8567 -78.5297 90° East 506 582 39,000  Level Cleveland Center
Thu 03:30:28 AM 42.8572 -78.3317 90° East 516 594 39,000  Level Cleveland Center
Thu 03:31:28 AM 42.8553 -78.1333 91° East 516 594 39,000  Level Cleveland Center
Thu 03:32:28 AM 42.8553 -77.9408 90° East 516 594 39,000  Level Cleveland Center
Thu 03:33:28 AM 42.8547 -77.7453 90° East 516 594 39,000  Level Cleveland Center
Thu 03:34:28 AM 42.8519 -77.5528 91° East 516 594 39,000  Level Cleveland Center
Thu 03:35:28 AM 42.8489 -77.3603 91° East 511 588 39,000  Level Cleveland Center
Thu 03:36:28 AM 42.8456 -77.1708 91° East 511 588 39,000  Level Cleveland Center
Thu 03:37:27 AM 42.8411 -76.9856 92° East 500 575 39,000  Level Boston Center
Thu 03:38:28 AM 42.8386 -76.7814 91° East 495 570 39,000  Level Boston Center
Thu 03:39:27 AM 42.8358 -76.6339 91° East 495 570 39,000  Level Boston Center
Thu 03:40:27 AM 42.8331 -76.4214 91° East 500 575 39,000  Level Boston Center
Thu 03:41:27 AM 42.8269 -76.2311 92° East 505 581 39,000  Level Boston Center
Thu 03:42:27 AM 42.8228 -76.0411 92° East 505 581 39,000  Level Boston Center
Thu 03:43:30 AM 42.8183 -75.8511 92° East 505 581 39,000  Level Boston Center
Thu 03:44:27 AM 42.8097 -75.6383 93° East 507 583 39,000  Level Boston Center
Thu 03:45:28 AM 42.8044 -75.4486 92° East 507 583 39,000  Level Boston Center
Thu 03:46:27 AM 42.7989 -75.2586 92° East 507 583 39,000  Level Boston Center
Thu 03:47:30 AM 42.7953 -75.0658 91° East 507 583 39,000  Level Boston Center
Thu 03:48:27 AM 42.7869 -74.8817 93° East 502 578 39,000  Level Boston Center
Thu 03:49:28 AM 42.7803 -74.6919 93° East 502 578 39,000  Level Boston Center
Thu 03:50:27 AM 42.7756 -74.5050 92° East 496 571 39,000  Level Boston Center
Thu 03:51:27 AM 42.7664 -74.3208 94° East 496 571 39,000  Level Boston Center
Thu 03:52:27 AM 42.7589 -74.1283 93° East 502 578 39,000 -99 Level Boston Center
Thu 03:53:28 AM 42.7553 -73.9331 91° East 507 583 38,800 -787 Descending Boston Center
Thu 03:54:29 AM 42.7950 -73.7586 73° East 492 566 37,400 -1,537 Descending Boston Center
Thu 03:55:29 AM 42.8383 -73.6150 68° East 463 533 35,700 -2,034 Descending Boston Center
Thu 03:56:27 AM 42.8817 -73.4347 72° East 452 520 33,400 -2,017 Descending Boston Center
Thu 03:57:28 AM 42.9267 -73.2878 67° East 458 527 31,700 -1,869 Descending Boston Center
Thu 03:58:29 AM 42.9714 -73.1211 70° East 463 533 29,600 -2,231 Descending Boston Center
Thu 03:59:29 AM 43.0161 -72.9342 72° East 468 539 27,200 -2,269 Descending Boston Center
Thu 04:00:28 AM 43.0586 -72.7697 70° East 463 533 25,100 -2,034 Descending Boston Center
Thu 04:01:27 AM 43.1067 -72.5994 69° East 463 533 23,200 -1,750 Descending Boston Center
Thu 04:02:28 AM 43.1422 -72.4486 72° East 469 540 21,600 -1,574 Descending Boston Center
Thu 04:03:29 AM 43.1839 -72.2836 71° East 459 528 20,000 -1,672 Descending Boston Center
Thu 04:04:30 AM 43.2253 -72.1125 72° East 438 504 18,200 -1,525 Descending Boston Center
Thu 04:05:27 AM 43.2603 -71.9725 71° East 433 498 17,000 -1,385 Descending Boston Center
Thu 04:06:27 AM 43.3031 -71.8011 71° East 428 493 15,500 -1,339 Descending Boston Center
Thu 04:07:28 AM 43.3356 -71.6664 72° East 428 493 14,300 -1,300 Descending Boston Center
Thu 04:08:27 AM 43.3761 -71.5061 71° East 412 474 12,900 -1,289 Descending Boston Center
Thu 04:09:29 AM 43.4064 -71.3828 71° East 391 450 11,700 -1,073 Descending Boston Center
Thu 04:10:30 AM 43.4550 -71.2531 63° Northeast 364 419 10,700 -966 Descending Boston Center
Thu 04:11:27 AM 43.4997 -71.1550 58° Northeast 312 359 9,800 -1,271 Descending Boston Center
Thu 04:12:28 AM 43.5383 -71.0683 58° Northeast 274 315 8,200 -1,659 Descending Boston Center
Thu 04:13:30 AM 43.5789 -70.9814 57° Northeast 269 310 6,400 -1,563 Descending Boston Center
Thu 04:14:27 AM 43.6217 -70.9028 53° Northeast 259 298 5,100 -1,169 Descending Boston Center
Thu 04:15:28 AM 43.6561 -70.8272 58° Northeast 259 298 4,100 -645 Descending Boston Center
Thu 04:16:28 AM 43.6714 -70.7350 77° East 238 274 3,800 -298 Descending Boston Center
Thu 04:17:29 AM 43.6681 -70.6578 93° East 215 247 3,500 -744 Descending Boston Center
Thu 04:18:29 AM 43.6625 -70.5658 95° East 215 247 2,300 -814 Descending Boston Center
Thu 04:19:27 AM 43.6572 -70.5000 96° East 208 239 1,900 -403 Descending Boston Center
Thu 04:20:28 AM 43.6519 -70.4258 96° East 187 215 1,500 -545 Descending Boston Center
Thu 04:21:28 AM 43.6508 -70.3711 92° East 158 182 800 -655 Descending Boston Center
Thu 04:22:27 AM 43.6456 -70.3083 97° East 153 176 200 -610 Descending Boston Center
Thu 04:24:00 AM 43.6456 -70.3086 101° East  Level Estimated
Thu 04:31:00 AM 43.6456 -70.3086 101° East  Level Estimated
Thu 04:32:00 AM 43.6456 -70.3086 101° East  Level Estimated
Thu 04:33:00 AM 43.6456 -70.3086 101° East  Level Estimated
Thu 04:34:00 AM 43.6456 -70.3086 101° East  Level Estimated

Login

Don't have an account? Register now (free) for customized features, flight alerts, and more!